Time;durP1;ratioP1;P1;durP2;ratioP2;P2;SDS_P1;SDS_P2;PMS_P1;PMS_P2;Temp;Humidity;BMP_temperature;BMP_pressure;BME280_temperature;BME280_humidity;BME280_pressure;Samples;Min_cycle;Max_cycle;Signal;HPM_P1;HPM_P2
2022/07/05 00:00:58;;;;;;;10.60;4.80;;;;;;;13.43;100.00;102121.34;2614473;31;20037;-56
2022/07/05 00:03:27;;;;;;;7.97;5.50;;;;;;;13.37;100.00;102116.44;2614460;36;20034;-55
2022/07/05 00:05:56;;;;;;;7.30;6.05;;;;;;;13.41;100.00;102123.31;2614968;36;20042;-58
2022/07/05 00:08:25;;;;;;;6.75;6.00;;;;;;;13.45;100.00;102115.81;2615194;36;20046;-57
2022/07/05 00:10:56;;;;;;;8.23;5.75;;;;;;;13.33;100.00;102104.94;2613922;36;20416;-56
2022/07/05 00:13:24;;;;;;;7.45;5.90;;;;;;;13.27;100.00;102108.16;2613673;36;20551;-55
2022/07/05 00:15:53;;;;;;;6.77;6.07;;;;;;;13.20;100.00;102109.63;2614746;36;20042;-56
2022/07/05 00:18:21;;;;;;;7.93;6.13;;;;;;;13.21;100.00;102105.09;2613893;31;20046;-55
2022/07/05 00:20:49;;;;;;;6.60;5.75;;;;;;;13.29;100.00;102114.31;2613801;36;20037;-56
2022/07/05 00:23:17;;;;;;;6.88;6.00;;;;;;;13.42;100.00;102116.06;2613231;36;20567;-57
2022/07/05 00:25:46;;;;;;;8.38;6.55;;;;;;;13.42;100.00;102118.75;2613498;36;20035;-57
2022/07/05 00:28:16;;;;;;;8.88;7.10;;;;;;;13.45;100.00;102118.50;2613479;36;20078;-57
2022/07/05 00:30:45;;;;;;;9.63;7.32;;;;;;;13.40;100.00;102118.03;2614251;31;20086;-57
2022/07/05 00:33:13;;;;;;;9.77;7.20;;;;;;;13.40;100.00;102115.31;2614811;31;20443;-54
2022/07/05 00:35:41;;;;;;;11.63;7.28;;;;;;;13.25;100.00;102120.94;2615238;31;20464;-58
2022/07/05 00:38:10;;;;;;;15.32;8.82;;;;;;;13.17;100.00;102117.13;2613883;36;20049;-56
2022/07/05 00:40:38;;;;;;;8.98;7.90;;;;;;;13.17;100.00;102112.56;2614018;36;20416;-57
2022/07/05 00:43:06;;;;;;;11.30;7.53;;;;;;;13.23;100.00;102120.19;2613826;36;20057;-56
2022/07/05 00:45:37;;;;;;;11.80;8.67;;;;;;;13.26;100.00;102116.38;2614765;36;20042;-56
2022/07/05 00:48:06;;;;;;;15.27;9.68;;;;;;;13.12;100.00;102114.81;2614146;36;20026;-56
2022/07/05 00:50:35;;;;;;;12.70;10.40;;;;;;;13.09;100.00;102115.06;2614482;36;20042;-54
2022/07/05 00:53:04;;;;;;;14.90;10.32;;;;;;;12.96;100.00;102121.41;2614978;36;20408;-57
2022/07/05 00:55:32;;;;;;;12.88;10.55;;;;;;;13.00;100.00;102118.47;2609011;36;20069;-55
2022/07/05 00:58:00;;;;;;;12.67;9.93;;;;;;;13.08;100.00;102116.03;2610479;36;20069;-55
2022/07/05 01:00:29;;;;;;;13.77;9.77;;;;;;;13.14;100.00;102129.03;2614563;36;20027;-56
2022/07/05 01:03:00;;;;;;;12.00;9.10;;;;;;;13.11;100.00;102122.03;2614650;31;20154;-52
2022/07/05 01:05:28;;;;;;;12.30;9.60;;;;;;;13.09;100.00;102117.75;2614441;36;20067;-55
2022/07/05 01:07:58;;;;;;;14.30;9.40;;;;;;;13.07;100.00;102125.09;2613834;36;20842;-51
2022/07/05 01:10:26;;;;;;;10.00;8.63;;;;;;;13.04;100.00;102120.78;2612500;36;20276;-55
2022/07/05 01:12:55;;;;;;;13.07;9.43;;;;;;;12.99;100.00;102111.34;2614192;36;21140;-53
2022/07/05 01:15:24;;;;;;;12.88;10.05;;;;;;;12.94;100.00;102114.38;2614125;36;20030;-55
2022/07/05 01:17:52;;;;;;;11.73;8.95;;;;;;;12.88;100.00;102121.16;2614380;36;20030;-56
2022/07/05 01:20:23;;;;;;;12.40;9.35;;;;;;;12.86;100.00;102115.00;2613834;36;20035;-54
2022/07/05 01:22:59;;;;;;;12.23;8.55;;;;;;;12.90;100.00;102127.31;2613766;36;20046;-57
2022/07/05 01:25:32;;;;;;;12.45;9.30;;;;;;;12.78;100.00;102114.75;2613682;31;20034;-57
2022/07/05 01:28:02;;;;;;;13.48;10.07;;;;;;;12.68;100.00;102108.34;2614092;36;20408;-55
2022/07/05 01:30:31;;;;;;;13.70;9.27;;;;;;;12.68;100.00;102109.19;2615060;36;20459;-56
2022/07/05 01:32:59;;;;;;;13.73;10.23;;;;;;;12.68;100.00;102105.66;2613880;31;20038;-55
2022/07/05 01:35:27;;;;;;;13.55;9.98;;;;;;;12.54;100.00;102102.16;2614560;36;20523;-56
2022/07/05 01:37:58;;;;;;;11.75;9.57;;;;;;;12.60;100.00;102109.81;2614421;36;20590;-56
2022/07/05 01:40:27;;;;;;;12.02;8.70;;;;;;;12.69;100.00;102115.44;2613922;31;20035;-57
2022/07/05 01:42:55;;;;;;;11.77;9.20;;;;;;;12.65;100.00;102122.06;2613808;36;20570;-56
2022/07/05 01:48:07;;;;;;;12.02;10.20;;;;;;;12.65;100.00;102119.38;2614099;36;20038;-53
2022/07/05 01:50:41;;;;;;;16.52;10.10;;;;;;;12.68;100.00;102119.16;2614416;36;20038;-55
2022/07/05 01:53:14;;;;;;;12.70;10.27;;;;;;;12.64;100.00;102128.47;2614220;36;20443;-56
2022/07/05 01:55:42;;;;;;;12.80;10.02;;;;;;;12.56;100.00;102120.97;2614910;36;20038;-53
2022/07/05 01:58:11;;;;;;;13.65;10.90;;;;;;;12.66;100.00;102121.09;2614520;31;20037;-57
2022/07/05 02:00:46;;;;;;;11.60;9.35;;;;;;;12.75;100.00;102123.97;2614752;36;20120;-55
2022/07/05 02:03:15;;;;;;;13.43;9.63;;;;;;;12.83;100.00;102123.34;2615052;36;20034;-53
2022/07/05 02:05:44;;;;;;;;;;;;;;;12.85;100.00;102121.38;2614817;36;20033;-58
2022/07/05 02:08:17;;;;;;;13.43;10.05;;;;;;;12.83;100.00;102115.25;2614101;36;20001;-58
2022/07/05 02:10:46;;;;;;;13.23;9.73;;;;;;;12.97;100.00;102123.13;2614664;36;20063;-55
2022/07/05 02:13:15;;;;;;;12.18;10.60;;;;;;;13.07;100.00;102117.88;2613974;36;20031;-56
2022/07/05 02:15:44;;;;;;;15.55;10.65;;;;;;;13.12;100.00;102106.69;2615253;36;20572;-58
2022/07/05 02:18:12;;;;;;;17.88;10.10;;;;;;;13.21;100.00;102113.22;2615699;31;20031;-53
2022/07/05 02:20:42;;;;;;;12.70;9.17;;;;;;;13.23;100.00;102117.50;2613871;36;20107;-56
2022/07/05 02:23:11;;;;;;;14.13;9.82;;;;;;;13.22;100.00;102107.69;2615270;36;20038;-52
2022/07/05 02:25:41;;;;;;;12.27;10.18;;;;;;;13.16;100.00;102113.56;2614575;36;20031;-55
2022/07/05 02:28:10;;;;;;;14.77;9.95;;;;;;;13.14;100.00;102105.56;2614758;36;20042;-52
2022/07/05 02:30:38;;;;;;;13.13;10.18;;;;;;;13.13;100.00;102108.38;2614976;36;20038;-57
2022/07/05 02:33:06;;;;;;;12.85;9.68;;;;;;;13.12;100.00;102107.53;2615233;36;20039;-55
2022/07/05 02:35:35;;;;;;;12.77;9.65;;;;;;;13.22;100.00;102110.38;2615057;36;20436;-56
2022/07/05 02:38:03;;;;;;;12.23;9.75;;;;;;;13.19;100.00;102109.75;2615488;36;20031;-56
2022/07/05 02:40:35;;;;;;;12.63;10.13;;;;;;;13.22;100.00;102114.91;2615755;36;20140;-51
2022/07/05 02:43:06;;;;;;;11.80;9.40;;;;;;;13.10;100.00;102108.63;2614891;36;20034;-56
2022/07/05 02:45:34;;;;;;;11.07;9.90;;;;;;;13.09;100.00;102106.94;2614205;36;20034;-56
2022/07/05 02:48:02;;;;;;;14.23;9.73;;;;;;;13.02;100.00;102106.56;2615003;36;20038;-58
2022/07/05 02:50:31;;;;;;;12.73;10.10;;;;;;;13.05;100.00;102110.88;2614662;31;20041;-58
2022/07/05 02:52:59;;;;;;;13.40;10.32;;;;;;;13.00;100.00;102118.47;2614833;36;20060;-56
2022/07/05 02:55:27;;;;;;;17.00;9.80;;;;;;;12.96;100.00;102110.59;2615065;31;20589;-56
2022/07/05 02:57:57;;;;;;;15.00;10.60;;;;;;;12.88;100.00;102114.88;2612128;36;20086;-53
2022/07/05 03:00:28;;;;;;;12.57;10.18;;;;;;;12.81;100.00;102119.91;2612675;36;20046;-58
2022/07/05 03:02:56;;;;;;;15.45;11.23;;;;;;;12.64;100.00;102118.50;2614136;36;20566;-53
2022/07/05 03:05:24;;;;;;;11.93;9.98;;;;;;;12.60;100.00;102117.91;2614593;36;20042;-55
2022/07/05 03:07:53;;;;;;;14.32;11.13;;;;;;;12.65;100.00;102120.25;2614245;36;20054;-60
2022/07/05 03:10:21;;;;;;;16.85;11.60;;;;;;;12.65;100.00;102119.38;2614260;36;20432;-57
2022/07/05 03:12:49;;;;;;;13.57;10.80;;;;;;;12.62;100.00;102115.94;2615847;36;20434;-55
2022/07/05 03:15:17;;;;;;;13.48;9.60;;;;;;;12.66;100.00;102121.97;2614810;36;20653;-59
2022/07/05 03:17:48;;;;;;;13.27;9.98;;;;;;;12.70;100.00;102122.59;2615231;31;20030;-57
2022/07/05 03:20:18;;;;;;;12.27;10.43;;;;;;;12.68;100.00;102135.38;2613470;31;20030;-58
2022/07/05 03:22:47;;;;;;;14.32;10.32;;;;;;;12.51;100.00;102126.69;2615307;36;20057;-55
2022/07/05 03:25:15;;;;;;;16.73;10.90;;;;;;;12.53;100.00;102140.06;2614979;31;20038;-56
2022/07/05 03:27:43;;;;;;;16.05;10.50;;;;;;;12.53;100.00;102132.84;2615811;36;20479;-56
2022/07/05 03:30:13;;;;;;;15.77;10.45;;;;;;;12.49;100.00;102147.56;2614500;36;21057;-56
2022/07/05 03:32:41;;;;;;;11.88;10.50;;;;;;;12.46;100.00;102147.81;2613526;36;20034;-55
2022/07/05 03:35:12;;;;;;;14.50;10.95;;;;;;;12.40;100.00;102149.13;2614578;36;20398;-55
2022/07/05 03:37:41;;;;;;;15.02;11.02;;;;;;;12.42;100.00;102149.00;2615231;36;20393;-53
2022/07/05 03:40:10;;;;;;;16.08;10.88;;;;;;;12.36;100.00;102144.94;2613366;36;20131;-54
2022/07/05 03:42:39;;;;;;;15.13;11.25;;;;;;;12.39;100.00;102151.94;2613568;36;20547;-54
2022/07/05 03:45:08;;;;;;;16.10;11.43;;;;;;;12.47;100.00;102146.84;2615084;31;20467;-58
2022/07/05 03:47:36;;;;;;;;;;;;;;;12.44;100.00;102144.38;2615486;31;20480;-55
2022/07/05 03:50:05;;;;;;;14.55;12.18;;;;;;;12.43;100.00;102148.03;2613704;36;19977;-51
2022/07/05 03:52:35;;;;;;;14.50;11.93;;;;;;;12.49;100.00;102150.28;2614411;36;20413;-55
2022/07/05 03:55:04;;;;;;;12.95;11.60;;;;;;;12.65;100.00;102151.78;2614660;36;20045;-56
2022/07/05 03:57:33;;;;;;;16.13;13.65;;;;;;;12.78;100.00;102158.00;2614893;36;20023;-59
2022/07/05 04:00:01;;;;;;;17.27;12.90;;;;;;;12.92;100.00;102148.78;2614269;36;20047;-58
2022/07/05 04:02:29;;;;;;;15.73;11.70;;;;;;;13.00;100.00;102156.28;2613116;36;20050;-53
2022/07/05 04:04:57;;;;;;;15.23;11.98;;;;;;;12.96;100.00;102156.53;2614729;36;20556;-58
2022/07/05 04:07:26;;;;;;;15.02;12.25;;;;;;;13.14;100.00;102158.78;2614472;36;20042;-56
2022/07/05 04:09:57;;;;;;;15.82;11.68;;;;;;;13.15;100.00;102160.50;2614376;36;20038;-54
2022/07/05 04:12:25;;;;;;;12.77;11.30;;;;;;;13.23;100.00;102152.63;2614154;36;20556;-56
2022/07/05 04:14:53;;;;;;;13.60;11.73;;;;;;;13.28;100.00;102158.56;2614458;36;20034;-55
2022/07/05 04:17:21;;;;;;;15.47;13.13;;;;;;;13.33;100.00;102167.13;2613092;36;20037;-58
2022/07/05 04:19:50;;;;;;;16.52;11.70;;;;;;;13.43;100.00;102159.19;2614787;31;20435;-58
2022/07/05 04:22:18;;;;;;;16.20;11.70;;;;;;;13.47;100.00;102155.28;2613147;31;20037;-59
2022/07/05 04:27:32;;;;;;;17.80;11.43;;;;;;;13.60;100.00;102157.84;2614375;36;20042;-53
2022/07/05 04:30:01;;;;;;;13.68;10.45;;;;;;;13.66;100.00;102159.19;2614421;36;20034;-56
2022/07/05 04:32:29;;;;;;;14.83;11.30;;;;;;;13.77;100.00;102151.06;2613165;31;20141;-55
2022/07/05 04:34:57;;;;;;;16.02;10.68;;;;;;;13.82;100.00;102153.38;2614719;36;20061;-55
2022/07/05 04:37:25;;;;;;;14.10;11.35;;;;;;;13.96;100.00;102157.69;2613734;36;20031;-58
2022/07/05 04:39:54;;;;;;;12.27;11.07;;;;;;;13.92;100.00;102157.06;2613892;36;20064;-50
2022/07/05 04:42:22;;;;;;;18.87;11.70;;;;;;;14.13;100.00;102156.25;2614012;36;20578;-57
2022/07/05 04:44:53;;;;;;;14.75;11.73;;;;;;;14.34;100.00;102159.91;2614205;36;20551;-56
2022/07/05 04:47:21;;;;;;;15.23;11.38;;;;;;;14.37;100.00;102148.81;2613078;36;20042;-57
2022/07/05 04:49:50;;;;;;;14.35;10.60;;;;;;;14.32;100.00;102156.44;2612416;36;20065;-58
2022/07/05 04:52:18;;;;;;;13.80;11.50;;;;;;;14.40;100.00;102152.22;2613802;36;20034;-55
2022/07/05 04:54:46;;;;;;;17.10;11.52;;;;;;;14.41;100.00;102160.22;2614023;36;20071;-56
2022/07/05 04:57:15;;;;;;;15.88;11.27;;;;;;;14.46;100.00;102152.59;2614729;36;20030;-55
2022/07/05 04:59:43;;;;;;;14.40;10.43;;;;;;;14.47;100.00;102157.03;2614045;31;20058;-58
2022/07/05 05:02:14;;;;;;;11.70;10.23;;;;;;;14.63;100.00;102156.56;2614852;36;20030;-55
2022/07/05 05:04:42;;;;;;;16.77;11.25;;;;;;;14.54;100.00;102160.06;2613978;36;20058;-57
2022/07/05 05:07:11;;;;;;;11.90;10.00;;;;;;;14.71;100.00;102159.50;2613952;36;20035;-57
2022/07/05 05:09:39;;;;;;;17.67;11.40;;;;;;;14.71;100.00;102156.78;2613911;36;20507;-57
2022/07/05 05:12:08;;;;;;;14.13;11.48;;;;;;;14.73;100.00;102158.53;2615041;31;20034;-55
2022/07/05 05:14:36;;;;;;;14.02;11.88;;;;;;;14.77;100.00;102162.69;2614483;36;20424;-55
2022/07/05 05:17:05;;;;;;;15.65;12.45;;;;;;;14.80;100.00;102157.84;2613792;36;20035;-58
2022/07/05 05:19:36;;;;;;;13.15;11.75;;;;;;;15.04;100.00;102162.16;2613966;31;20611;-53
2022/07/05 05:22:05;;;;;;;15.68;11.02;;;;;;;14.97;100.00;102169.09;2614314;31;20451;-55
2022/07/05 05:24:34;;;;;;;13.60;11.00;;;;;;;15.03;100.00;102161.28;2613758;36;20031;-57
2022/07/05 05:27:02;;;;;;;20.40;11.50;;;;;;;14.92;100.00;102157.81;2615313;31;20587;-53
2022/07/05 05:29:31;;;;;;;18.05;12.52;;;;;;;14.89;100.00;102170.59;2614727;36;20038;-52
2022/07/05 05:31:59;;;;;;;17.17;12.02;;;;;;;14.94;100.00;102164.78;2613773;36;20559;-53
2022/07/05 05:34:28;;;;;;;16.25;12.23;;;;;;;15.06;100.00;102160.16;2613106;31;20578;-54
2022/07/05 05:36:59;;;;;;;14.75;12.10;;;;;;;15.14;100.00;102162.22;2613178;36;20038;-57
2022/07/05 05:39:27;;;;;;;13.13;11.73;;;;;;;15.36;100.00;102162.03;2613426;36;20038;-56
2022/07/05 05:41:55;;;;;;;18.45;12.02;;;;;;;15.61;100.00;102165.28;2613214;36;20062;-55
2022/07/05 05:44:23;;;;;;;17.13;12.18;;;;;;;15.64;100.00;102165.00;2613613;36;20100;-54
2022/07/05 05:46:52;;;;;;;13.80;11.75;;;;;;;15.72;100.00;102170.63;2614220;36;20421;-56
2022/07/05 05:49:20;;;;;;;14.37;11.60;;;;;;;15.75;100.00;102170.34;2612613;36;20034;-57
2022/07/05 05:51:48;;;;;;;15.97;11.87;;;;;;;15.82;100.00;102161.66;2614365;31;20491;-56
2022/07/05 05:54:19;;;;;;;16.00;11.10;;;;;;;15.95;100.00;102167.69;2615035;36;20042;-54
2022/07/05 05:56:47;;;;;;;18.23;11.10;;;;;;;16.04;100.00;102172.28;2615079;36;20478;-56
2022/07/05 05:59:16;;;;;;;12.05;10.63;;;;;;;16.10;100.00;102171.72;2614444;36;20528;-54
2022/07/05 06:01:44;;;;;;;13.97;10.53;;;;;;;16.14;100.00;102168.75;2615228;36;20436;-55
2022/07/05 06:04:12;;;;;;;12.87;11.67;;;;;;;16.04;100.00;102180.44;2613369;31;20030;-54
2022/07/05 06:06:40;;;;;;;15.53;10.33;;;;;;;16.24;100.00;102177.75;2614639;36;20030;-54
2022/07/05 06:09:09;;;;;;;10.82;9.15;;;;;;;16.42;100.00;102176.03;2612543;36;20047;-56
2022/07/05 06:11:40;;;;;;;13.57;9.47;;;;;;;16.50;100.00;102174.47;2615096;36;20535;-54
2022/07/05 06:14:08;;;;;;;10.98;6.47;;;;;;;16.71;100.00;102174.31;2615020;36;20042;-57
2022/07/05 06:16:37;;;;;;;7.68;6.00;;;;;;;16.93;100.00;102170.47;2614551;31;20099;-53
2022/07/05 06:19:05;;;;;;;7.63;6.40;;;;;;;16.94;100.00;102169.47;2614091;31;20041;-54
2022/07/05 06:21:33;;;;;;;9.27;5.47;;;;;;;17.25;100.00;102166.53;2613430;36;20034;-53
2022/07/05 06:24:02;;;;;;;9.00;6.10;;;;;;;17.57;100.00;102176.16;2613803;36;20860;-55
2022/07/05 06:26:30;;;;;;;10.67;6.73;;;;;;;17.60;100.00;102168.53;2615081;36;20085;-55
2022/07/05 06:29:01;;;;;;;10.15;6.35;;;;;;;17.97;100.00;102172.25;2614749;36;20034;-54
2022/07/05 06:31:29;;;;;;;8.82;6.97;;;;;;;17.99;100.00;102172.94;2612557;31;20034;-55
2022/07/05 06:33:58;;;;;;;9.25;6.18;;;;;;;18.08;100.00;102179.31;2611422;36;20034;-55
2022/07/05 06:36:26;;;;;;;8.43;6.50;;;;;;;18.32;100.00;102179.59;2612702;36;20034;-57
2022/07/05 06:38:54;;;;;;;7.13;5.43;;;;;;;18.43;100.00;102194.00;2614342;36;20716;-56
2022/07/05 06:41:23;;;;;;;5.13;3.53;;;;;;;18.40;100.00;102184.25;2613314;36;20038;-58
2022/07/05 06:43:51;;;;;;;5.63;2.65;;;;;;;18.74;100.00;102187.16;2614943;36;20038;-53
2022/07/05 06:46:22;;;;;;;3.58;2.67;;;;;;;19.16;100.00;102190.22;2613618;36;20301;-56
2022/07/05 06:48:50;;;;;;;6.85;2.95;;;;;;;19.34;100.00;102184.69;2609428;36;20041;-56
2022/07/05 06:51:19;;;;;;;5.20;2.30;;;;;;;19.41;100.00;102199.41;2594859;31;20081;-54
2022/07/05 06:53:47;;;;;;;6.07;2.63;;;;;;;19.41;100.00;102199.41;2614257;36;20244;-55
2022/07/05 06:56:15;;;;;;;4.80;2.47;;;;;;;19.40;100.00;102200.41;2614625;36;20420;-53
2022/07/05 06:58:43;;;;;;;4.35;2.40;;;;;;;19.85;100.00;102196.59;2613867;31;20666;-58
2022/07/05 07:01:12;;;;;;;5.00;2.10;;;;;;;20.15;100.00;102194.28;2613498;36;20058;-53
2022/07/05 07:03:43;;;;;;;3.17;2.25;;;;;;;19.88;100.00;102201.72;2612178;36;20031;-53
2022/07/05 07:06:11;;;;;;;4.40;2.40;;;;;;;20.03;100.00;102198.34;2614332;36;20555;-57
2022/07/05 07:11:20;;;;;;;4.45;1.98;;;;;;;19.88;100.00;102198.13;2614846;36;20125;-58
2022/07/05 07:13:48;;;;;;;4.57;2.17;;;;;;;20.04;100.00;102200.91;2614000;36;20034;-54
2022/07/05 07:16:16;;;;;;;8.25;2.28;;;;;;;19.84;100.00;102186.66;2614948;31;20045;-53
2022/07/05 07:18:47;;;;;;;4.50;2.05;;;;;;;19.86;100.00;102186.50;2614562;36;20034;-55
2022/07/05 07:21:16;;;;;;;4.10;2.05;;;;;;;20.09;100.00;102200.41;2614200;31;20078;-53
2022/07/05 07:23:44;;;;;;;4.03;2.30;;;;;;;20.11;100.00;102195.63;2613267;36;20045;-57
2022/07/05 07:26:13;;;;;;;5.97;3.00;;;;;;;20.17;100.00;102194.97;2611789;36;20030;-57
2022/07/05 07:28:41;;;;;;;4.72;2.35;;;;;;;20.23;100.00;102194.31;2614192;36;20600;-57
2022/07/05 07:31:10;;;;;;;5.15;2.03;;;;;;;20.16;100.00;102186.94;2614424;36;20038;-58
2022/07/05 07:33:38;;;;;;;8.95;2.22;;;;;;;20.23;100.00;102196.16;2614184;36;20580;-51
2022/07/05 07:36:10;;;;;;;5.32;2.10;;;;;;;19.85;100.00;102188.38;2614001;36;20034;-57
2022/07/05 07:38:38;;;;;;;3.97;1.90;;;;;;;19.84;100.00;102189.38;2613895;36;20038;-57
2022/07/05 07:41:07;;;;;;;6.82;2.10;;;;;;;20.16;100.00;102192.41;2612507;36;20031;-54
2022/07/05 07:43:35;;;;;;;4.32;1.88;;;;;;;20.71;100.00;102190.97;2612306;36;20031;-53
2022/07/05 07:46:03;;;;;;;7.20;2.40;;;;;;;20.81;100.00;102200.69;2613942;31;20436;-55
2022/07/05 07:48:32;;;;;;;5.05;1.95;;;;;;;21.28;100.00;102193.63;2611310;36;20061;-58
2022/07/05 07:51:00;;;;;;;5.20;1.95;;;;;;;21.44;100.00;102198.22;2605352;36;20053;-57
2022/07/05 07:53:31;;;;;;;2.80;1.73;;;;;;;20.62;100.00;102192.81;2613841;36;20042;-55
2022/07/05 07:55:59;;;;;;;6.10;2.15;;;;;;;20.45;100.00;102197.41;2614082;36;20061;-58
2022/07/05 07:58:27;;;;;;;8.15;2.30;;;;;;;20.34;100.00;102197.75;2606255;36;20039;-57
2022/07/05 08:00:56;;;;;;;4.18;2.00;;;;;;;20.95;100.00;102204.66;2614568;36;20038;-54
2022/07/05 08:03:24;;;;;;;2.83;1.85;;;;;;;20.67;100.00;102200.53;2614247;36;20393;-59
2022/07/05 08:05:52;;;;;;;4.55;2.10;;;;;;;20.78;100.00;102202.94;2606795;36;20074;-57
2022/07/05 08:08:21;;;;;;;4.95;1.85;;;;;;;20.87;100.00;102195.59;2611290;36;20065;-55
2022/07/05 08:10:52;;;;;;;7.75;1.80;;;;;;;20.78;100.00;102197.47;2613219;36;20553;-57
2022/07/05 08:13:20;;;;;;;3.08;1.58;;;;;;;20.45;100.00;102203.75;2614700;36;20586;-54
2022/07/05 08:15:48;;;;;;;5.00;2.13;;;;;;;20.04;100.00;102203.66;2614489;36;20558;-56
2022/07/05 08:23:38;;;;;;;4.03;1.40;;;;;;;19.29;100.00;102212.47;2612422;36;20130;-57
2022/07/05 08:26:09;;;;;;;3.50;1.70;;;;;;;19.69;100.00;102212.88;2612810;36;20035;-53
2022/07/05 08:28:37;;;;;;;3.35;1.30;;;;;;;19.69;100.00;102218.34;2613402;36;20042;-56
2022/07/05 08:31:06;;;;;;;4.10;1.70;;;;;;;19.46;100.00;102218.88;2614117;36;20065;-55
2022/07/05 08:33:34;;;;;;;3.53;1.75;;;;;;;19.43;100.00;102216.47;2614009;36;20540;-58
2022/07/05 08:36:02;;;;;;;4.07;1.70;;;;;;;19.76;100.00;102222.13;2613616;36;20030;-56
2022/07/05 08:38:31;;;;;;;3.08;1.60;;;;;;;19.91;100.00;102211.47;2612021;36;20034;-57
2022/07/05 08:41:00;;;;;;;3.13;1.42;;;;;;;20.25;100.00;102205.91;2614305;36;20034;-57
2022/07/05 08:43:32;;;;;;;3.13;1.50;;;;;;;20.77;100.00;102206.69;2615085;31;20031;-52
2022/07/05 08:46:02;;;;;;;4.97;1.75;;;;;;;21.23;100.00;102214.34;2613250;36;20477;-52
2022/07/05 08:48:34;;;;;;;3.42;1.80;;;;;;;21.88;100.00;102208.72;2613862;36;20034;-57
2022/07/05 08:51:02;;;;;;;6.40;1.80;;;;;;;21.93;100.00;102221.88;2613440;36;20034;-57
2022/07/05 08:53:32;;;;;;;5.25;2.00;;;;;;;21.20;100.00;102212.84;2612721;31;20038;-59
2022/07/05 08:56:01;;;;;;;24.00;2.78;;;;;;;20.98;100.00;102208.94;2613254;36;20034;-56
2022/07/05 08:58:33;;;;;;;10.95;2.38;;;;;;;20.81;100.00;102210.81;2605975;31;20066;-57
2022/07/05 09:01:02;;;;;;;5.57;2.00;;;;;;;20.67;100.00;102208.75;2606812;36;20500;-58
2022/07/05 09:03:36;;;;;;;30.13;3.97;;;;;;;20.70;100.00;102200.19;2611053;36;20053;-57
2022/07/05 09:06:05;;;;;;;9.45;2.10;;;;;;;21.16;100.00;102203.25;2613582;31;20117;-58
2022/07/05 09:08:38;;;;;;;4.50;1.83;;;;;;;21.15;100.00;102204.28;2613206;36;20034;-55
2022/07/05 09:11:07;;;;;;;4.40;1.40;;;;;;;22.36;100.00;102205.91;2615064;36;20551;-56
2022/07/05 09:13:41;;;;;;;5.20;1.45;;;;;;;22.60;100.00;102212.25;2612699;36;20084;-57
2022/07/05 09:16:11;;;;;;;2.75;1.60;;;;;;;22.47;100.00;102206.53;2612568;36;20960;-57
2022/07/05 09:18:46;;;;;;;5.20;1.42;;;;;;;21.27;100.00;102212.97;2614081;36;20162;-56
2022/07/05 09:21:19;;;;;;;3.67;1.52;;;;;;;20.85;100.00;102209.44;2614022;31;20039;-59
2022/07/05 09:23:56;;;;;;;5.75;1.70;;;;;;;21.47;100.00;102208.81;2613389;31;20031;-58
2022/07/05 09:26:33;;;;;;;3.03;1.27;;;;;;;22.08;100.00;102204.69;2613677;36;20039;-57
2022/07/05 09:29:06;;;;;;;3.50;1.13;;;;;;;21.46;100.00;102211.75;2614363;36;20038;-56
2022/07/05 09:31:36;;;;;;;3.72;1.58;;;;;;;21.69;100.00;102211.88;2613514;36;20057;-59
2022/07/05 09:34:09;;;;;;;2.55;1.27;;;;;;;21.85;100.00;102217.28;2613123;36;20069;-53
2022/07/05 09:36:56;;;;;;;3.85;1.40;;;;;;;21.78;100.00;102212.72;2613684;36;20103;-56
2022/07/05 09:39:38;;;;;;;2.30;1.10;;;;;;;22.57;100.00;102215.38;2612039;36;20045;-55
2022/07/05 09:42:14;;;;;;;3.28;1.30;;;;;;;21.82;100.00;102205.81;2613526;36;20030;-56
2022/07/05 09:44:47;;;;;;;3.72;1.40;;;;;;;21.66;100.00;102218.56;2612325;36;20037;-55
2022/07/05 09:47:17;;;;;;;3.08;1.17;;;;;;;21.57;100.00;102219.63;2613991;36;20049;-56
2022/07/05 09:49:47;;;;;;;4.18;1.33;;;;;;;20.91;100.00;102218.84;2614101;36;20463;-65
2022/07/05 09:52:29;;;;;;;5.05;1.50;;;;;;;20.74;100.00;102220.72;2612172;36;20035;-53
2022/07/05 09:55:04;;;;;;;4.13;1.30;;;;;;;21.13;100.00;102220.88;2612587;31;20031;-56
2022/07/05 09:57:33;;;;;;;2.75;1.20;;;;;;;20.85;100.00;102216.78;2614290;36;20034;-55
2022/07/05 10:00:06;;;;;;;8.32;1.27;;;;;;;21.05;100.00;102217.28;2605622;36;20079;-56
2022/07/05 10:02:42;;;;;;;3.05;1.33;;;;;;;21.09;100.00;102226.88;2612606;31;20042;-56
2022/07/05 10:05:11;;;;;;;4.18;1.38;;;;;;;21.33;100.00;102226.84;2611191;36;20039;-59
2022/07/05 10:07:44;;;;;;;4.53;1.20;;;;;;;20.60;100.00;102220.34;2605696;36;20038;-56
2022/07/05 10:10:14;;;;;;;4.82;1.40;;;;;;;20.43;100.00;102230.38;2612825;31;20551;-56
2022/07/05 10:12:43;;;;;;;2.17;1.25;;;;;;;20.67;100.00;102236.09;2614689;36;20142;-53
2022/07/05 10:15:18;;;;;;;1.90;1.20;;;;;;;21.54;100.00;102225.47;2612552;36;20037;-57
2022/07/05 10:17:48;;;;;;;3.75;1.00;;;;;;;21.53;100.00;102235.53;2613510;36;20038;-56
2022/07/05 10:20:23;;;;;;;3.17;1.20;;;;;;;21.43;100.00;102234.00;2614101;36;20507;-52
2022/07/05 10:22:51;;;;;;;4.43;1.25;;;;;;;21.31;100.00;102226.16;2613544;36;20037;-57
2022/07/05 10:25:19;;;;;;;3.25;1.30;;;;;;;21.55;100.00;102226.31;2613675;36;20477;-54
2022/07/05 10:27:52;;;;;;;5.15;1.30;;;;;;;22.30;100.00;102219.47;2613687;36;20042;-58
2022/07/05 10:30:25;;;;;;;4.50;1.17;;;;;;;23.23;100.00;102223.94;2614862;36;20551;-52
2022/07/05 10:32:53;;;;;;;2.92;1.20;;;;;;;23.52;86.06;102226.88;2614743;36;20034;-54
2022/07/05 10:35:23;;;;;;;4.35;1.15;;;;;;;22.98;84.64;102225.16;2614115;36;20037;-57
2022/07/05 10:37:51;;;;;;;2.15;1.08;;;;;;;22.83;86.38;102220.47;2615003;36;20776;-58
2022/07/05 10:40:20;;;;;;;4.32;1.23;;;;;;;23.33;91.96;102223.63;2612399;36;20038;-55
2022/07/05 10:42:52;;;;;;;2.97;1.08;;;;;;;23.60;93.78;102227.66;2614323;36;20035;-56
2022/07/05 10:45:34;;;;;;;4.25;1.10;;;;;;;23.28;96.10;102223.34;2614367;36;20039;-55
2022/07/05 10:48:18;;;;;;;5.72;1.10;;;;;;;23.83;78.38;102225.84;2614659;36;20038;-58
2022/07/05 10:50:51;;;;;;;3.97;1.45;;;;;;;23.33;88.32;102231.88;2614027;31;20042;-55
2022/07/05 10:53:21;;;;;;;3.95;1.17;;;;;;;23.29;89.85;102225.03;2613259;36;20033;-58
2022/07/05 10:55:58;;;;;;;6.20;1.25;;;;;;;23.59;88.15;102231.44;2612438;31;20034;-57
2022/07/05 10:58:36;;;;;;;5.85;1.17;;;;;;;23.41;93.02;102229.06;2612771;31;20031;-56
2022/07/05 11:01:40;;;;;;;2.28;1.35;;;;;;;22.81;93.04;102238.19;2612324;31;20065;-52
2022/07/05 11:04:30;;;;;;;3.10;1.02;;;;;;;22.52;100.00;102228.78;2610952;36;20067;-54
2022/07/05 11:06:59;;;;;;;3.55;1.05;;;;;;;22.40;92.33;102234.66;2606907;36;20034;-58
2022/07/05 11:09:28;;;;;;;3.75;1.15;;;;;;;22.68;99.59;102236.03;2607468;36;20057;-54
2022/07/05 11:12:07;;;;;;;;;;;;;;;23.12;93.78;102235.34;2614921;36;20034;-57
2022/07/05 11:14:40;;;;;;;4.43;1.30;;;;;;;22.16;100.00;102230.16;2614689;36;20036;-58
2022/07/05 11:17:22;;;;;;;4.15;1.33;;;;;;;22.90;97.54;102239.81;2615437;36;20456;-55
2022/07/05 11:20:19;;;;;;;3.45;1.60;;;;;;;24.01;87.30;102237.28;2614524;36;20041;-57
2022/07/05 11:23:04;;;;;;;4.05;1.10;;;;;;;24.44;77.50;102233.78;2614351;36;20435;-59
2022/07/05 11:25:35;;;;;;;2.35;1.00;;;;;;;23.37;81.42;102248.84;2613857;36;20069;-57
2022/07/05 11:28:23;;;;;;;2.95;1.27;;;;;;;23.19;83.51;102247.31;2615152;36;20567;-58
2022/07/05 11:30:59;;;;;;;4.88;1.50;;;;;;;22.29;94.97;102247.91;2614778;36;20085;-56
2022/07/05 11:33:35;;;;;;;4.05;1.15;;;;;;;22.42;100.00;102245.47;2613408;36;20035;-55
2022/07/05 11:36:09;;;;;;;4.72;1.30;;;;;;;22.84;99.93;102244.16;2613523;36;20411;-56
2022/07/05 11:38:57;;;;;;;6.43;1.42;;;;;;;23.21;98.02;102247.13;2613422;36;20030;-55